createdAt,value
2023-04-09T00:01:07.934Z,11.23
2023-04-09T00:03:35.653Z,11.20
2023-04-09T00:06:03.343Z,11.15
2023-04-09T00:08:30.637Z,11.19
2023-04-09T00:10:58.466Z,11.33
2023-04-09T00:13:38.519Z,11.28
2023-04-09T00:16:07.033Z,11.32
2023-04-09T00:18:34.086Z,11.41
2023-04-09T00:21:01.144Z,11.34
2023-04-09T00:23:28.303Z,11.34
2023-04-09T00:25:55.654Z,11.34
2023-04-09T00:28:22.762Z,11.25
2023-04-09T00:30:49.801Z,11.26
2023-04-09T00:33:16.887Z,11.31
2023-04-09T00:35:44.078Z,11.34
2023-04-09T00:38:11.138Z,11.16
2023-04-09T00:40:38.179Z,11.12
2023-04-09T00:43:05.712Z,10.98
2023-04-09T00:45:32.835Z,11.00
2023-04-09T00:48:00.028Z,11.11
2023-04-09T00:50:27.407Z,10.94
2023-04-09T00:52:54.504Z,11.07
2023-04-09T00:55:22.239Z,11.10
2023-04-09T00:57:49.333Z,11.10
2023-04-09T01:00:18.927Z,10.77
2023-04-09T01:02:46.535Z,10.70
2023-04-09T01:05:14.481Z,10.71
2023-04-09T01:08:00.365Z,10.68
2023-04-09T01:10:31.610Z,10.70
2023-04-09T01:13:11.946Z,10.79
2023-04-09T01:15:41.957Z,10.92
2023-04-09T01:18:30.978Z,10.74
2023-04-09T01:20:58.091Z,10.70
2023-04-09T01:23:34.224Z,10.60
2023-04-09T01:26:07.070Z,10.58
2023-04-09T01:28:45.316Z,10.52
2023-04-09T01:31:14.848Z,10.61
2023-04-09T01:33:42.295Z,10.66
2023-04-09T01:36:09.658Z,10.72
2023-04-09T01:38:39.809Z,10.66
2023-04-09T01:41:07.674Z,10.67
2023-04-09T01:43:35.000Z,10.69
2023-04-09T01:46:03.662Z,10.72
2023-04-09T01:48:31.434Z,10.69
2023-04-09T01:50:58.860Z,10.63
2023-04-09T01:53:28.456Z,10.58
2023-04-09T01:55:58.823Z,10.60
2023-04-09T01:58:26.580Z,10.45
2023-04-09T02:01:02.916Z,10.47
2023-04-09T02:03:34.257Z,10.42
2023-04-09T02:06:21.076Z,10.42
2023-04-09T02:08:48.820Z,10.33
2023-04-09T02:11:16.429Z,10.28
2023-04-09T02:13:44.167Z,10.39
2023-04-09T02:16:13.158Z,10.45
2023-04-09T02:18:40.360Z,10.46
2023-04-09T02:21:07.483Z,10.50
2023-04-09T02:23:35.048Z,10.63
2023-04-09T02:26:02.232Z,10.58
2023-04-09T02:28:29.534Z,10.59
2023-04-09T02:30:56.638Z,10.56
2023-04-09T02:33:23.700Z,10.51
2023-04-09T02:35:50.976Z,10.56
2023-04-09T02:38:19.699Z,10.57
2023-04-09T02:40:47.478Z,10.58
2023-04-09T02:43:14.626Z,10.61
2023-04-09T02:45:41.675Z,10.68
2023-04-09T02:48:08.790Z,10.65
2023-04-09T02:50:36.198Z,10.69
2023-04-09T02:53:03.733Z,10.62
2023-04-09T02:55:30.942Z,10.68
2023-04-09T02:57:58.231Z,10.73
2023-04-09T03:00:25.420Z,10.79
2023-04-09T03:02:53.070Z,10.83
2023-04-09T03:05:21.033Z,10.74
2023-04-09T03:07:48.093Z,10.73
2023-04-09T03:10:15.313Z,10.75
2023-04-09T03:12:44.568Z,10.82
2023-04-09T03:15:11.718Z,10.84
2023-04-09T03:17:39.282Z,10.83
2023-04-09T03:20:07.151Z,10.88
2023-04-09T03:22:39.298Z,10.84
2023-04-09T03:25:21.224Z,10.85
2023-04-09T03:27:51.924Z,10.89
2023-04-09T03:30:27.688Z,10.93
2023-04-09T03:32:55.599Z,10.94
2023-04-09T03:35:24.391Z,10.96
2023-04-09T03:37:57.399Z,10.85
2023-04-09T03:40:24.761Z,10.87
2023-04-09T03:42:51.871Z,10.81
2023-04-09T03:45:19.412Z,10.88
2023-04-09T03:47:48.831Z,10.83
2023-04-09T03:50:17.590Z,10.77
2023-04-09T03:52:49.146Z,10.77
2023-04-09T03:55:16.554Z,10.79
2023-04-09T03:57:43.666Z,10.75
2023-04-09T04:00:15.071Z,10.74
2023-04-09T04:02:51.368Z,10.78
2023-04-09T04:05:28.620Z,10.71
2023-04-09T04:07:58.733Z,10.69
2023-04-09T04:10:29.404Z,10.72
2023-04-09T04:12:56.599Z,10.61
2023-04-09T04:15:42.127Z,10.56
2023-04-09T04:18:11.025Z,10.54
2023-04-09T04:20:43.152Z,10.69
2023-04-09T04:23:13.535Z,10.75
2023-04-09T04:26:01.017Z,10.70
2023-04-09T04:28:32.756Z,10.78
2023-04-09T04:31:00.371Z,10.73
2023-04-09T04:33:29.907Z,10.64
2023-04-09T04:36:06.863Z,10.62
2023-04-09T04:38:43.742Z,10.58
2023-04-09T04:41:17.820Z,10.78
2023-04-09T04:43:51.931Z,10.67
2023-04-09T04:46:22.721Z,10.83
2023-04-09T04:48:50.111Z,10.65
2023-04-09T04:51:17.662Z,10.49
2023-04-09T04:53:56.527Z,10.35
2023-04-09T04:56:23.816Z,10.42
2023-04-09T04:59:01.678Z,10.25
2023-04-09T05:01:34.869Z,10.24
2023-04-09T05:04:04.168Z,10.25
2023-04-09T05:06:33.663Z,10.25
2023-04-09T05:09:05.361Z,10.35
2023-04-09T05:11:40.354Z,10.41
2023-04-09T05:14:13.933Z,10.40
2023-04-09T05:16:41.583Z,10.51
2023-04-09T05:19:08.711Z,10.55
2023-04-09T05:21:38.742Z,10.66
2023-04-09T05:24:06.370Z,10.72
2023-04-09T05:26:34.454Z,10.79
2023-04-09T05:29:02.763Z,10.69
2023-04-09T05:31:29.989Z,10.68
2023-04-09T05:34:02.973Z,10.86
2023-04-09T05:36:45.294Z,10.89
2023-04-09T05:39:12.817Z,10.90
2023-04-09T05:41:40.769Z,10.95
2023-04-09T05:44:27.968Z,11.01
2023-04-09T05:47:02.008Z,11.03
2023-04-09T05:49:35.237Z,11.09
2023-04-09T05:52:08.398Z,11.05
2023-04-09T05:54:36.487Z,11.07
2023-04-09T05:57:05.207Z,11.02
2023-04-09T05:59:36.001Z,10.91
2023-04-09T06:02:03.159Z,10.87
2023-04-09T06:04:30.344Z,11.02
2023-04-09T06:07:00.201Z,10.96
2023-04-09T06:09:30.288Z,10.94
2023-04-09T06:11:57.803Z,11.13
2023-04-09T06:14:25.187Z,11.07
2023-04-09T06:16:52.291Z,11.17
2023-04-09T06:19:19.644Z,11.09
2023-04-09T06:21:46.723Z,11.08
2023-04-09T06:24:13.813Z,11.30
2023-04-09T06:26:41.032Z,11.27
2023-04-09T06:29:08.104Z,11.45
2023-04-09T06:31:35.642Z,11.44
2023-04-09T06:34:02.818Z,11.40
2023-04-09T06:36:30.401Z,11.69
2023-04-09T06:38:57.675Z,11.77
2023-04-09T06:41:25.232Z,11.74
2023-04-09T06:43:52.927Z,11.80
2023-04-09T06:46:21.322Z,11.60
2023-04-09T06:48:48.450Z,11.68
2023-04-09T06:51:15.680Z,11.69
2023-04-09T06:53:42.727Z,11.77
2023-04-09T06:56:09.835Z,11.70
2023-04-09T06:58:39.837Z,12.23
2023-04-09T07:01:07.044Z,12.91
2023-04-09T07:03:35.548Z,13.24
2023-04-09T07:06:02.733Z,13.38
2023-04-09T07:08:29.817Z,13.49
2023-04-09T07:10:57.086Z,12.91
2023-04-09T07:13:24.260Z,13.89
2023-04-09T07:15:51.319Z,13.55
2023-04-09T07:18:18.563Z,13.24
2023-04-09T07:20:45.883Z,13.17
2023-04-09T07:23:12.949Z,13.51
2023-04-09T07:25:40.020Z,13.57
2023-04-09T07:28:07.204Z,13.64
2023-04-09T07:30:34.287Z,14.61
2023-04-09T07:33:01.509Z,14.54
2023-04-09T07:35:28.707Z,14.34
2023-04-09T07:37:55.860Z,15.15
2023-04-09T07:40:22.911Z,16.35
2023-04-09T07:42:50.818Z,16.98
2023-04-09T07:45:17.989Z,15.18
2023-04-09T07:47:45.215Z,14.98
2023-04-09T07:50:12.437Z,15.01
2023-04-09T07:52:39.541Z,14.59
2023-04-09T07:55:06.822Z,14.54
2023-04-09T07:57:34.252Z,13.86
2023-04-09T08:00:01.661Z,13.52
2023-04-09T08:02:40.258Z,14.13
2023-04-09T08:05:08.013Z,14.20
2023-04-09T08:07:35.332Z,13.65
2023-04-09T08:10:02.459Z,14.52
2023-04-09T08:12:29.712Z,15.51
2023-04-09T08:14:56.784Z,15.12
2023-04-09T08:17:24.566Z,14.83
2023-04-09T08:19:51.716Z,15.68
2023-04-09T08:22:18.872Z,16.72
2023-04-09T08:24:50.596Z,16.42
2023-04-09T08:27:17.977Z,15.79
2023-04-09T08:29:45.209Z,16.00
2023-04-09T08:32:12.677Z,17.15
2023-04-09T08:34:40.067Z,16.19
2023-04-09T08:37:07.373Z,15.99
2023-04-09T08:39:34.496Z,15.85
2023-04-09T08:42:02.269Z,15.83
2023-04-09T08:44:30.565Z,15.62
2023-04-09T08:46:58.478Z,16.54
2023-04-09T08:49:26.721Z,18.11
2023-04-09T08:51:53.814Z,17.75
2023-04-09T08:54:23.795Z,16.98
2023-04-09T08:56:50.960Z,17.16
2023-04-09T08:59:20.894Z,16.46
2023-04-09T09:01:53.740Z,16.19
2023-04-09T09:04:20.892Z,16.14
2023-04-09T09:06:47.985Z,16.02
2023-04-09T09:09:19.000Z,15.36
2023-04-09T09:11:47.263Z,14.84
2023-04-09T09:14:16.076Z,15.11
2023-04-09T09:16:44.627Z,15.10
2023-04-09T09:19:28.954Z,15.41
2023-04-09T09:22:06.637Z,14.72
2023-04-09T09:24:34.458Z,16.79
2023-04-09T09:27:02.617Z,18.08
2023-04-09T09:29:29.889Z,19.18
2023-04-09T09:31:57.010Z,19.93
2023-04-09T09:34:25.291Z,18.97
2023-04-09T09:36:52.596Z,18.84
2023-04-09T09:39:20.063Z,19.32
2023-04-09T09:41:48.762Z,19.07
2023-04-09T09:44:36.235Z,17.95
2023-04-09T09:47:04.266Z,17.60
2023-04-09T09:49:31.369Z,17.29
2023-04-09T09:51:59.564Z,16.85
2023-04-09T09:54:28.611Z,16.56
2023-04-09T09:56:58.013Z,16.31
2023-04-09T09:59:27.432Z,16.39
2023-04-09T10:02:16.685Z,16.47
2023-04-09T10:04:44.554Z,16.52
2023-04-09T10:07:12.012Z,17.06
2023-04-09T10:09:39.691Z,17.29
2023-04-09T10:12:07.273Z,17.55
2023-04-09T10:14:35.833Z,17.19
2023-04-09T10:17:04.072Z,17.17
2023-04-09T10:19:34.760Z,16.78
2023-04-09T10:22:08.549Z,16.81
2023-04-09T10:24:36.324Z,16.70
2023-04-09T10:27:10.730Z,16.53
2023-04-09T10:29:42.962Z,16.51
2023-04-09T10:32:10.059Z,16.55
2023-04-09T10:34:43.934Z,17.15
2023-04-09T10:37:15.347Z,16.83
2023-04-09T10:39:46.242Z,16.76
2023-04-09T10:42:34.128Z,16.58
2023-04-09T10:45:06.196Z,16.43
2023-04-09T10:47:37.353Z,16.14
2023-04-09T10:50:25.813Z,15.96
2023-04-09T10:52:54.009Z,16.78
2023-04-09T10:55:37.053Z,17.46
2023-04-09T10:58:13.170Z,17.15
2023-04-09T11:00:44.071Z,17.40
2023-04-09T11:03:21.823Z,17.03
2023-04-09T11:06:02.794Z,16.74
2023-04-09T11:08:31.461Z,16.89
2023-04-09T11:11:01.142Z,16.61
2023-04-09T11:13:29.965Z,16.68
2023-04-09T11:15:57.454Z,16.66
2023-04-09T11:18:28.310Z,16.43
2023-04-09T11:20:59.547Z,16.42
2023-04-09T11:23:27.081Z,16.65
2023-04-09T11:25:54.678Z,17.19
2023-04-09T11:28:23.143Z,17.41
2023-04-09T11:30:51.079Z,17.24
2023-04-09T11:33:19.961Z,17.34
2023-04-09T11:35:48.109Z,17.44
2023-04-09T11:38:15.283Z,17.69
2023-04-09T11:40:49.434Z,17.76
2023-04-09T11:43:17.649Z,17.79
2023-04-09T11:45:47.084Z,17.91
2023-04-09T11:48:15.007Z,17.09
2023-04-09T11:50:42.168Z,16.69
2023-04-09T11:53:16.074Z,16.77
2023-04-09T11:55:43.237Z,16.54
2023-04-09T11:58:11.649Z,16.58
2023-04-09T12:00:40.940Z,17.41
2023-04-09T12:03:08.393Z,17.74
2023-04-09T12:05:35.721Z,18.76
2023-04-09T12:08:05.226Z,19.52
2023-04-09T12:10:33.619Z,19.82
2023-04-09T12:13:05.716Z,19.87
2023-04-09T12:15:33.824Z,20.38
2023-04-09T12:18:01.246Z,20.63
2023-04-09T12:20:33.416Z,20.06
2023-04-09T12:23:02.891Z,20.15
2023-04-09T12:25:30.845Z,19.52
2023-04-09T12:27:58.729Z,20.01
2023-04-09T12:30:26.283Z,20.57
2023-04-09T12:32:53.910Z,20.04
2023-04-09T12:35:21.959Z,19.21
2023-04-09T12:37:49.557Z,20.02
2023-04-09T12:40:17.010Z,19.71
2023-04-09T12:42:45.036Z,18.78
2023-04-09T12:45:13.264Z,18.35
2023-04-09T12:47:40.449Z,18.47
2023-04-09T12:50:08.360Z,17.94
2023-04-09T12:52:35.773Z,17.79
2023-04-09T12:55:03.487Z,18.00
2023-04-09T12:57:30.784Z,17.44
2023-04-09T12:59:58.158Z,17.05
2023-04-09T13:02:25.762Z,16.96
2023-04-09T13:04:53.041Z,16.40
2023-04-09T13:07:20.637Z,16.47
2023-04-09T13:09:50.259Z,16.46
2023-04-09T13:12:17.785Z,16.42
2023-04-09T13:14:46.665Z,16.52
2023-04-09T13:17:14.309Z,16.81
2023-04-09T13:19:42.781Z,16.73
2023-04-09T13:22:10.552Z,16.86
2023-04-09T13:24:38.492Z,16.89
2023-04-09T13:27:06.665Z,17.06
2023-04-09T13:29:33.810Z,17.12
2023-04-09T13:32:05.748Z,16.98
2023-04-09T13:34:34.054Z,16.97
2023-04-09T13:37:01.639Z,17.13
2023-04-09T13:39:28.661Z,17.26
2023-04-09T13:41:56.286Z,17.10
2023-04-09T13:44:24.499Z,16.94
2023-04-09T13:46:51.622Z,16.76
2023-04-09T13:49:18.902Z,16.80
2023-04-09T13:51:46.196Z,17.00
2023-04-09T13:54:13.419Z,17.20
2023-04-09T13:56:41.166Z,17.50
2023-04-09T13:59:08.306Z,17.23
2023-04-09T14:01:35.985Z,17.28
2023-04-09T14:04:03.321Z,17.61
2023-04-09T14:06:31.392Z,17.42
2023-04-09T14:08:58.483Z,17.25
2023-04-09T14:11:26.057Z,17.26
2023-04-09T14:13:53.404Z,16.96
2023-04-09T14:16:20.878Z,17.09
2023-04-09T14:18:47.956Z,17.11
2023-04-09T14:21:15.478Z,16.96
2023-04-09T14:23:42.588Z,17.09
2023-04-09T14:26:11.399Z,17.30
2023-04-09T14:28:38.448Z,17.40
2023-04-09T14:31:06.394Z,17.52
2023-04-09T14:33:33.589Z,17.12
2023-04-09T14:36:00.831Z,16.94
2023-04-09T14:38:27.975Z,17.13
2023-04-09T14:40:55.200Z,17.31
2023-04-09T14:43:22.314Z,17.01
2023-04-09T14:45:49.356Z,17.12
2023-04-09T14:48:16.602Z,16.67
2023-04-09T14:50:43.886Z,16.52
2023-04-09T14:53:11.029Z,16.25
2023-04-09T14:55:38.619Z,16.15
2023-04-09T14:58:07.777Z,16.03
2023-04-09T15:00:34.999Z,15.99
2023-04-09T15:03:02.796Z,15.91
2023-04-09T15:05:29.981Z,15.96
2023-04-09T15:07:57.280Z,15.77
2023-04-09T15:10:24.386Z,15.76
2023-04-09T15:12:51.657Z,15.85
2023-04-09T15:15:18.820Z,16.11
2023-04-09T15:17:45.977Z,15.96
2023-04-09T15:20:13.969Z,15.87
2023-04-09T15:22:41.205Z,15.64
2023-04-09T15:25:08.475Z,15.55
2023-04-09T15:27:36.010Z,15.52
2023-04-09T15:30:03.337Z,15.63
2023-04-09T15:32:31.174Z,15.61
2023-04-09T15:34:59.083Z,15.61
2023-04-09T15:37:26.239Z,15.47
2023-04-09T15:39:53.276Z,15.34
2023-04-09T15:42:22.831Z,15.15
2023-04-09T15:44:50.446Z,15.06
2023-04-09T15:47:17.690Z,15.14
2023-04-09T15:49:44.812Z,15.10
2023-04-09T15:52:11.906Z,15.28
2023-04-09T15:54:39.072Z,15.11
2023-04-09T15:57:06.195Z,15.16
2023-04-09T15:59:33.365Z,14.97
2023-04-09T16:02:00.505Z,14.81
2023-04-09T16:04:27.729Z,14.89
2023-04-09T16:06:56.317Z,14.75
2023-04-09T16:09:23.794Z,14.84
2023-04-09T16:11:51.211Z,14.79
2023-04-09T16:14:18.394Z,14.78
2023-04-09T16:16:47.210Z,14.59
2023-04-09T16:19:14.474Z,14.34
2023-04-09T16:21:45.408Z,14.29
2023-04-09T16:24:13.017Z,14.15
2023-04-09T16:26:41.072Z,14.14
2023-04-09T16:29:08.213Z,14.08
2023-04-09T16:31:35.980Z,13.93
2023-04-09T16:34:03.543Z,13.81
2023-04-09T16:36:31.832Z,14.15
2023-04-09T16:38:59.177Z,13.95
2023-04-09T16:41:26.309Z,13.70
2023-04-09T16:43:53.817Z,13.73
2023-04-09T16:46:21.044Z,13.70
2023-04-09T16:48:48.160Z,13.69
2023-04-09T16:51:15.424Z,13.72
2023-04-09T16:53:42.607Z,13.72
2023-04-09T16:56:09.681Z,13.70
2023-04-09T16:58:36.806Z,13.73
2023-04-09T17:01:04.271Z,13.78
2023-04-09T17:03:31.486Z,13.70
2023-04-09T17:05:58.766Z,13.80
2023-04-09T17:08:26.372Z,13.78
2023-04-09T17:11:01.882Z,13.79
2023-04-09T17:13:29.670Z,13.46
2023-04-09T17:15:56.768Z,13.45
2023-04-09T17:18:24.079Z,13.44
2023-04-09T17:20:51.098Z,13.54
2023-04-09T17:23:18.117Z,13.49
2023-04-09T17:25:46.177Z,13.56
2023-04-09T17:28:13.278Z,13.49
2023-04-09T17:30:40.487Z,13.50
2023-04-09T17:33:07.717Z,13.44
2023-04-09T17:35:34.882Z,13.40
2023-04-09T17:38:02.025Z,13.40
2023-04-09T17:40:29.127Z,13.38
2023-04-09T17:42:56.336Z,13.37
2023-04-09T17:45:23.427Z,13.11
2023-04-09T17:47:51.220Z,13.10
2023-04-09T17:50:18.422Z,13.20
2023-04-09T17:52:46.521Z,13.37
2023-04-09T17:55:14.069Z,13.30
2023-04-09T17:57:41.749Z,13.13
2023-04-09T18:00:09.833Z,13.13
2023-04-09T18:02:46.239Z,13.09
2023-04-09T18:05:13.662Z,13.11
2023-04-09T18:07:41.227Z,13.09
2023-04-09T18:10:08.473Z,13.01
2023-04-09T18:12:35.720Z,13.01
2023-04-09T18:15:03.608Z,13.09
2023-04-09T18:17:30.815Z,13.08
2023-04-09T18:19:58.452Z,13.01
2023-04-09T18:22:26.202Z,13.04
2023-04-09T18:24:53.281Z,13.02
2023-04-09T18:27:21.277Z,13.04
2023-04-09T18:29:51.426Z,12.90
2023-04-09T18:32:19.789Z,12.91
2023-04-09T18:34:47.714Z,12.85
2023-04-09T18:37:15.287Z,12.82
2023-04-09T18:39:42.388Z,12.77
2023-04-09T18:42:09.632Z,12.81
2023-04-09T18:44:37.579Z,12.85
2023-04-09T18:47:09.417Z,12.97
2023-04-09T18:49:36.966Z,12.95
2023-04-09T18:52:09.060Z,12.98
2023-04-09T18:54:37.265Z,12.85
2023-04-09T18:57:04.574Z,12.74
2023-04-09T18:59:33.432Z,12.80
2023-04-09T19:02:05.307Z,12.77
2023-04-09T19:04:39.583Z,12.86
2023-04-09T19:07:07.561Z,12.85
2023-04-09T19:09:37.143Z,12.70
2023-04-09T19:12:04.620Z,12.73
2023-04-09T19:14:31.757Z,12.70
2023-04-09T19:16:59.658Z,12.82
2023-04-09T19:19:28.981Z,12.67
2023-04-09T19:21:56.197Z,12.57
2023-04-09T19:24:24.931Z,12.58
2023-04-09T19:26:53.199Z,12.55
2023-04-09T19:29:20.338Z,12.54
2023-04-09T19:31:47.516Z,12.53
2023-04-09T19:34:15.685Z,12.53
2023-04-09T19:36:42.861Z,12.49
2023-04-09T19:39:11.091Z,12.41
2023-04-09T19:41:38.245Z,12.44
2023-04-09T19:44:07.383Z,12.34
2023-04-09T19:46:34.642Z,12.32
2023-04-09T19:49:01.845Z,12.33
2023-04-09T19:51:28.944Z,12.39
2023-04-09T19:53:56.318Z,12.33
2023-04-09T19:56:23.378Z,12.40
2023-04-09T19:58:50.761Z,12.42
2023-04-09T20:01:18.305Z,12.49
2023-04-09T20:03:45.713Z,12.58
2023-04-09T20:06:12.896Z,12.59
2023-04-09T20:08:40.976Z,12.55
2023-04-09T20:11:08.169Z,12.49
2023-04-09T20:13:35.304Z,12.40
2023-04-09T20:16:02.469Z,12.35
2023-04-09T20:18:29.603Z,12.37
2023-04-09T20:20:56.681Z,12.42
2023-04-09T20:23:23.762Z,12.59
2023-04-09T20:25:54.780Z,12.60
2023-04-09T20:28:22.073Z,12.42
2023-04-09T20:30:49.345Z,12.31
2023-04-09T20:33:17.641Z,12.32
2023-04-09T20:35:44.794Z,12.28
2023-04-09T20:38:12.072Z,12.27
2023-04-09T20:40:39.374Z,12.23
2023-04-09T20:43:07.114Z,12.27
2023-04-09T20:45:34.328Z,12.21
2023-04-09T20:48:02.989Z,12.21
2023-04-09T20:50:31.686Z,12.18
2023-04-09T20:52:59.007Z,12.23
2023-04-09T20:55:26.236Z,12.26
2023-04-09T20:57:53.819Z,12.02
2023-04-09T21:00:21.784Z,12.21
2023-04-09T21:02:49.172Z,12.17
2023-04-09T21:05:23.335Z,12.15
2023-04-09T21:07:52.690Z,12.01
2023-04-09T21:10:20.272Z,12.11
2023-04-09T21:12:47.460Z,12.08
2023-04-09T21:15:14.603Z,12.03
2023-04-09T21:17:41.788Z,12.02
2023-04-09T21:20:09.231Z,12.01
2023-04-09T21:22:36.458Z,11.95
2023-04-09T21:25:03.994Z,12.04
2023-04-09T21:27:31.517Z,11.95
2023-04-09T21:29:58.982Z,11.88
2023-04-09T21:32:26.336Z,11.86
2023-04-09T21:34:53.521Z,11.88
2023-04-09T21:37:20.985Z,11.87
2023-04-09T21:39:48.966Z,11.87
2023-04-09T21:42:16.199Z,11.83
2023-04-09T21:44:43.429Z,11.91
2023-04-09T21:47:12.123Z,11.79
2023-04-09T21:49:40.447Z,11.75
2023-04-09T21:52:14.352Z,11.80
2023-04-09T21:54:42.128Z,11.72
2023-04-09T21:57:09.496Z,11.74
2023-04-09T21:59:37.092Z,11.68
2023-04-09T22:02:04.692Z,11.63
2023-04-09T22:04:32.094Z,11.65
2023-04-09T22:06:59.432Z,11.66
2023-04-09T22:09:26.604Z,11.69
2023-04-09T22:11:53.756Z,11.66
2023-04-09T22:14:21.549Z,11.76
2023-04-09T22:16:48.744Z,11.62
2023-04-09T22:19:16.068Z,11.51
2023-04-09T22:21:43.184Z,11.52
2023-04-09T22:24:10.334Z,11.50
2023-04-09T22:26:37.483Z,11.50
2023-04-09T22:29:06.750Z,11.44
2023-04-09T22:31:34.137Z,11.39
2023-04-09T22:34:10.004Z,11.41
2023-04-09T22:36:41.427Z,11.46
2023-04-09T22:39:08.601Z,11.55
2023-04-09T22:41:36.096Z,11.48
2023-04-09T22:44:03.367Z,11.53
2023-04-09T22:46:30.794Z,11.50
2023-04-09T22:49:04.462Z,11.51
2023-04-09T22:51:34.464Z,11.41
2023-04-09T22:54:02.201Z,11.30
2023-04-09T22:56:30.281Z,11.29
2023-04-09T22:58:57.342Z,11.21
2023-04-09T23:01:24.535Z,11.17
2023-04-09T23:03:51.756Z,11.15
2023-04-09T23:06:18.948Z,11.10
2023-04-09T23:08:46.542Z,11.20
2023-04-09T23:11:13.701Z,11.19
2023-04-09T23:13:40.881Z,11.16
2023-04-09T23:16:08.686Z,11.12
2023-04-09T23:18:36.396Z,11.01
2023-04-09T23:21:04.730Z,11.04
2023-04-09T23:23:31.803Z,11.07
2023-04-09T23:25:58.973Z,11.12
2023-04-09T23:28:26.013Z,11.11
2023-04-09T23:30:53.059Z,11.06
2023-04-09T23:33:20.490Z,11.02
2023-04-09T23:35:47.547Z,10.99
2023-04-09T23:38:15.560Z,10.89
2023-04-09T23:40:43.059Z,10.91
2023-04-09T23:43:10.125Z,10.99
2023-04-09T23:45:37.205Z,10.94
2023-04-09T23:48:06.200Z,10.96
2023-04-09T23:50:33.314Z,10.89
2023-04-09T23:53:03.428Z,10.80
2023-04-09T23:55:30.668Z,10.68
2023-04-09T23:57:57.720Z,10.58
